Time;durP1;ratioP1;P1;durP2;ratioP2;P2;SDS_P1;SDS_P2;PMS_P1;PMS_P2;Temp;Humidity;BMP_temperature;BMP_pressure;BME280_temperature;BME280_humidity;BME280_pressure;Samples;Min_cycle;Max_cycle;Signal;HPM_P1;HPM_P2
2022/09/06 00:01:41;;;;;;;1.20;1.00;;;19.60;96.60;;;;;;4786656;29;20047;-86
2022/09/06 00:04:07;;;;;;;1.25;0.90;;;19.60;96.60;;;;;;4775398;30;20052;-84
2022/09/06 00:06:34;;;;;;;1.48;1.00;;;19.50;96.60;;;;;;4784160;30;20107;-84
2022/09/06 00:08:59;;;;;;;2.28;0.88;;;19.50;96.70;;;;;;4769360;30;20051;-85
2022/09/06 00:11:25;;;;;;;1.08;0.80;;;19.50;96.80;;;;;;4769233;30;20058;-86
2022/09/06 00:13:51;;;;;;;1.20;0.90;;;19.50;96.70;;;;;;4771505;30;20051;-85
2022/09/06 00:16:22;;;;;;;1.67;1.20;;;19.40;97.00;;;;;;4770460;30;20047;-84
2022/09/06 00:18:53;;;;;;;3.67;1.10;;;19.40;96.60;;;;;;4768872;30;20058;-85
2022/09/06 00:21:28;;;;;;;1.58;1.00;;;19.30;97.00;;;;;;4770393;30;20043;-85
2022/09/06 00:23:54;;;;;;;1.60;0.98;;;19.40;97.30;;;;;;4771088;30;20058;-84
2022/09/06 00:26:21;;;;;;;2.65;1.40;;;19.30;97.20;;;;;;4770331;30;20044;-86
2022/09/06 00:28:47;;;;;;;1.25;1.05;;;19.30;96.90;;;;;;4777259;30;20056;-86
2022/09/06 00:31:24;;;;;;;1.88;1.33;;;19.30;97.10;;;;;;4778697;29;20055;-87
2022/09/06 00:33:50;;;;;;;1.15;1.00;;;19.20;97.30;;;;;;4769997;30;20190;-84
2022/09/06 00:36:17;;;;;;;1.30;0.80;;;19.20;97.50;;;;;;4769216;30;20084;-85
2022/09/06 00:38:43;;;;;;;1.55;0.98;;;19.10;97.40;;;;;;4770176;30;20108;-84
2022/09/06 00:41:11;;;;;;;2.30;1.00;;;19.10;97.60;;;;;;4763471;30;20097;-84
2022/09/06 00:43:37;;;;;;;1.55;1.10;;;19.10;97.60;;;;;;4769272;30;20044;-83
2022/09/06 00:46:05;;;;;;;1.23;1.10;;;19.00;97.30;;;;;;4770305;30;20101;-84
2022/09/06 00:48:31;;;;;;;2.08;1.10;;;19.00;97.60;;;;;;4769056;30;20079;-84
2022/09/06 00:51:00;;;;;;;2.63;1.10;;;19.00;97.50;;;;;;4769326;30;20060;-84
2022/09/06 00:53:27;;;;;;;1.30;0.90;;;19.00;97.70;;;;;;4775237;30;20044;-85
2022/09/06 00:55:53;;;;;;;1.77;1.20;;;19.00;97.60;;;;;;4771447;30;20510;-84
2022/09/06 00:58:19;;;;;;;2.03;1.13;;;18.90;97.70;;;;;;4768732;30;20060;-84
2022/09/06 01:00:45;;;;;;;1.58;0.93;;;18.90;97.70;;;;;;4768856;30;20056;-84
2022/09/06 01:03:11;;;;;;;1.67;1.17;;;18.90;98.00;;;;;;4765199;30;20134;-84
2022/09/06 01:05:57;;;;;;;1.77;1.02;;;18.80;97.80;;;;;;4769980;30;20401;-84
2022/09/06 01:08:50;;;;;;;1.95;1.45;;;18.80;98.00;;;;;;4768671;30;20040;-84
2022/09/06 01:11:30;;;;;;;1.40;1.10;;;18.80;98.00;;;;;;4770325;30;20075;-84
2022/09/06 01:14:21;;;;;;;1.60;1.00;;;18.80;98.20;;;;;;4754106;30;20558;-84
2022/09/06 01:17:09;;;;;;;1.88;1.30;;;18.70;98.30;;;;;;4769836;30;20134;-84
2022/09/06 01:20:13;;;;;;;1.58;1.10;;;18.80;98.40;;;;;;4770245;30;20048;-84
2022/09/06 01:22:47;;;;;;;1.52;1.10;;;18.70;98.40;;;;;;4697102;30;20535;-84
2022/09/06 01:25:50;;;;;;;1.70;0.90;;;18.70;98.00;;;;;;4682764;30;20077;-84
2022/09/06 01:28:26;;;;;;;1.30;1.00;;;18.70;98.20;;;;;;4688867;30;20057;-84
2022/09/06 01:31:25;;;;;;;1.55;0.70;;;18.70;98.40;;;;;;4696351;30;20057;-84
2022/09/06 01:34:16;;;;;;;1.38;1.02;;;18.60;98.60;;;;;;4696324;30;20060;-84
2022/09/06 01:36:47;;;;;;;1.80;1.30;;;18.60;98.70;;;;;;4696411;30;20061;-84
2022/09/06 01:39:31;;;;;;;1.35;0.90;;;18.60;98.30;;;;;;4696740;30;20054;-84
2022/09/06 01:42:02;;;;;;;1.58;1.02;;;18.60;98.50;;;;;;4696215;30;20072;-84
2022/09/06 01:44:29;;;;;;;3.80;1.15;;;18.50;98.40;;;;;;4677514;30;20929;-85
2022/09/06 01:47:07;;;;;;;1.08;0.85;;;18.60;98.40;;;;;;4685471;30;20115;-84
2022/09/06 01:50:10;;;;;;;1.30;0.90;;;18.60;98.50;;;;;;4685802;30;20517;-84
2022/09/06 01:52:53;;;;;;;1.13;0.80;;;18.50;98.60;;;;;;4699894;30;20397;-84
2022/09/06 01:55:38;;;;;;;1.63;1.08;;;18.50;98.60;;;;;;4686255;30;20053;-85
2022/09/06 01:58:31;;;;;;;1.42;1.25;;;18.50;98.80;;;;;;4707336;30;20069;-84
2022/09/06 02:01:12;;;;;;;1.33;1.00;;;18.50;99.00;;;;;;4772584;30;20464;-84
2022/09/06 02:04:06;;;;;;;1.10;0.70;;;18.40;98.70;;;;;;4778812;30;20058;-84
2022/09/06 02:06:42;;;;;;;1.40;0.80;;;18.40;98.60;;;;;;4772964;30;20105;-84
2022/09/06 02:09:15;;;;;;;1.77;1.00;;;18.40;98.90;;;;;;4772338;30;20498;-84
2022/09/06 02:11:48;;;;;;;1.58;1.10;;;18.30;99.10;;;;;;4771045;30;20054;-84
2022/09/06 02:14:21;;;;;;;1.80;0.88;;;18.30;99.00;;;;;;4771479;30;20074;-84
2022/09/06 02:16:49;;;;;;;1.67;1.00;;;18.30;99.10;;;;;;4777664;29;20050;-85
2022/09/06 02:19:36;;;;;;;1.48;1.05;;;18.30;99.00;;;;;;4787320;29;20497;-84
2022/09/06 02:22:07;;;;;;;1.67;1.15;;;18.30;99.20;;;;;;4771800;30;20522;-84
2022/09/06 02:24:36;;;;;;;2.00;1.30;;;18.30;99.40;;;;;;4773986;30;20043;-84
2022/09/06 02:27:02;;;;;;;3.42;1.33;;;18.20;99.20;;;;;;4775355;30;20066;-84
2022/09/06 02:29:28;;;;;;;1.90;1.20;;;18.20;99.40;;;;;;4771727;30;20074;-84
2022/09/06 02:32:21;;;;;;;1.90;1.10;;;18.20;99.50;;;;;;4771863;30;20070;-84
2022/09/06 02:34:55;;;;;;;2.50;1.40;;;18.20;99.30;;;;;;4771884;30;20059;-84
2022/09/06 02:37:24;;;;;;;1.05;0.85;;;18.20;99.30;;;;;;4772254;30;20379;-84
2022/09/06 02:39:51;;;;;;;1.90;1.17;;;18.20;99.30;;;;;;4772017;30;20054;-84
2022/09/06 02:42:16;;;;;;;1.48;1.08;;;18.10;99.40;;;;;;4772289;30;20533;-84
2022/09/06 02:44:42;;;;;;;1.38;1.20;;;18.20;99.40;;;;;;4772003;30;20043;-84
2022/09/06 02:47:08;;;;;;;2.25;1.20;;;18.10;99.70;;;;;;4778555;29;20051;-84
2022/09/06 02:49:34;;;;;;;2.08;1.05;;;18.10;99.60;;;;;;4772342;30;20075;-84
2022/09/06 02:51:59;;;;;;;2.33;1.08;;;18.10;99.90;;;;;;4772295;30;20051;-84
2022/09/06 02:54:25;;;;;;;1.95;0.90;;;18.10;99.90;;;;;;4771649;30;20456;-84
2022/09/06 02:56:51;;;;;;;1.75;0.90;;;18.00;99.90;;;;;;4775909;30;20055;-85
2022/09/06 02:59:17;;;;;;;2.30;1.20;;;18.00;99.90;;;;;;4771724;30;20059;-85
2022/09/06 03:01:42;;;;;;;2.60;1.10;;;18.00;99.90;;;;;;4771525;30;20397;-84
2022/09/06 03:04:08;;;;;;;1.20;1.00;;;18.00;99.90;;;;;;4772383;30;20214;-84
2022/09/06 03:06:34;;;;;;;1.90;1.10;;;18.00;99.90;;;;;;4778692;30;20063;-84
2022/09/06 03:08:59;;;;;;;1.83;1.30;;;17.90;99.90;;;;;;4756174;30;20108;-84
2022/09/06 03:11:26;;;;;;;1.88;1.20;;;18.00;99.90;;;;;;4771604;30;20532;-84
2022/09/06 03:13:51;;;;;;;1.52;1.40;;;18.00;99.90;;;;;;4771672;30;20383;-84
2022/09/06 03:16:18;;;;;;;1.42;1.17;;;18.00;99.90;;;;;;4772481;30;20055;-84
2022/09/06 03:18:44;;;;;;;2.03;1.17;;;17.90;99.90;;;;;;4783464;30;20055;-85
2022/09/06 03:21:10;;;;;;;1.80;1.42;;;17.90;99.90;;;;;;4776322;30;20066;-84
2022/09/06 03:23:38;;;;;;;1.90;1.60;;;17.90;99.90;;;;;;4771756;30;20093;-86
2022/09/06 03:26:05;;;;;;;2.92;1.65;;;17.90;99.90;;;;;;4756065;30;20062;-85
2022/09/06 03:28:31;;;;;;;1.77;1.42;;;17.90;99.90;;;;;;4771576;30;20043;-84
2022/09/06 03:30:56;;;;;;;2.30;1.58;;;17.90;99.90;;;;;;4770966;30;20054;-85
2022/09/06 03:33:23;;;;;;;2.03;1.52;;;17.90;99.90;;;;;;4801697;29;20142;-84
2022/09/06 03:35:54;;;;;;;2.38;1.52;;;17.90;99.90;;;;;;4779446;30;20055;-85
2022/09/06 03:38:21;;;;;;;2.95;1.73;;;17.80;99.90;;;;;;4774030;30;20563;-85
2022/09/06 03:40:47;;;;;;;2.63;1.50;;;17.80;99.90;;;;;;4785916;30;20040;-85
2022/09/06 03:43:14;;;;;;;2.30;1.45;;;17.80;99.90;;;;;;4784681;30;20063;-86
2022/09/06 03:45:44;;;;;;;2.38;1.60;;;17.80;99.90;;;;;;4771684;30;20431;-85
2022/09/06 03:48:10;;;;;;;2.13;1.42;;;17.80;99.90;;;;;;4769809;30;20410;-85
2022/09/06 03:50:36;;;;;;;2.10;1.40;;;17.80;99.90;;;;;;4769872;30;20048;-84
2022/09/06 03:53:01;;;;;;;1.70;1.30;;;17.80;99.90;;;;;;4771531;30;20059;-85
2022/09/06 03:55:27;;;;;;;2.17;1.40;;;17.70;99.90;;;;;;4771096;30;20073;-84
2022/09/06 03:57:52;;;;;;;2.13;1.58;;;17.70;99.90;;;;;;4771527;30;20047;-85
2022/09/06 04:00:18;;;;;;;2.00;1.40;;;17.70;99.90;;;;;;4765730;30;20406;-85
2022/09/06 04:02:44;;;;;;;2.45;1.65;;;17.70;99.90;;;;;;4771169;30;20402;-85
2022/09/06 04:05:12;;;;;;;1.90;1.33;;;17.70;99.90;;;;;;4771135;30;20052;-85
2022/09/06 04:07:38;;;;;;;2.22;1.45;;;17.70;99.90;;;;;;4754827;29;20054;-84
2022/09/06 04:10:04;;;;;;;2.13;1.45;;;17.70;99.90;;;;;;4770136;30;20047;-84
2022/09/06 04:12:29;;;;;;;2.40;1.23;;;17.70;99.90;;;;;;4755045;30;20060;-84
2022/09/06 04:14:55;;;;;;;1.70;1.38;;;17.70;99.90;;;;;;4771973;30;20063;-85
2022/09/06 04:17:21;;;;;;;3.13;1.50;;;17.70;99.90;;;;;;4769560;30;20079;-84
2022/09/06 04:19:46;;;;;;;1.83;1.42;;;17.60;99.90;;;;;;4754541;30;20414;-84
2022/09/06 04:22:12;;;;;;;1.83;1.42;;;17.60;99.90;;;;;;4769584;30;20054;-84
2022/09/06 04:24:38;;;;;;;2.10;1.70;;;17.60;99.90;;;;;;4771699;30;20055;-85
2022/09/06 04:27:04;;;;;;;2.00;1.63;;;17.60;99.90;;;;;;4778160;30;20109;-84
2022/09/06 04:29:29;;;;;;;2.45;2.10;;;17.60;99.90;;;;;;4770545;30;20100;-85
2022/09/06 04:31:55;;;;;;;1.83;1.63;;;17.60;99.90;;;;;;4770149;30;20489;-85
2022/09/06 04:34:21;;;;;;;2.17;1.73;;;17.60;99.90;;;;;;4771057;30;20048;-83
2022/09/06 04:36:46;;;;;;;2.03;1.55;;;17.80;99.90;;;;;;4769002;30;20052;-84
2022/09/06 04:39:12;;;;;;;2.00;1.52;;;17.60;99.90;;;;;;4771640;30;20039;-84
2022/09/06 04:41:38;;;;;;;2.13;1.58;;;17.40;99.90;;;;;;4774389;30;20051;-84
2022/09/06 04:44:04;;;;;;;2.55;1.50;;;17.60;99.90;;;;;;4771155;30;20056;-85
2022/09/06 04:46:30;;;;;;;2.25;1.40;;;17.60;99.90;;;;;;4772838;30;20043;-84
2022/09/06 04:48:56;;;;;;;2.22;1.48;;;17.60;99.90;;;;;;4770809;30;20566;-84
2022/09/06 04:51:23;;;;;;;2.05;1.48;;;17.60;99.90;;;;;;4771988;30;20429;-85
2022/09/06 04:53:49;;;;;;;3.22;1.85;;;17.60;99.90;;;;;;4785952;30;20059;-84
2022/09/06 04:56:18;;;;;;;2.78;1.52;;;17.60;99.90;;;;;;4774032;30;20047;-85
2022/09/06 04:58:45;;;;;;;2.17;1.40;;;17.60;99.90;;;;;;4787750;29;20052;-85
2022/09/06 05:01:12;;;;;;;2.58;1.77;;;17.60;99.90;;;;;;4769536;30;20056;-85
2022/09/06 05:03:38;;;;;;;2.97;1.58;;;17.60;99.90;;;;;;4763655;30;20056;-85
2022/09/06 05:06:09;;;;;;;1.65;1.48;;;17.70;99.90;;;;;;4767618;30;20052;-84
2022/09/06 05:08:40;;;;;;;3.83;1.58;;;17.70;99.90;;;;;;4771851;30;20068;-84
2022/09/06 05:11:07;;;;;;;2.63;1.50;;;18.00;99.90;;;;;;4773400;30;20044;-84
2022/09/06 05:13:33;;;;;;;1.55;1.42;;;17.60;99.90;;;;;;4766837;30;20410;-85
2022/09/06 05:16:00;;;;;;;2.45;1.40;;;17.60;99.90;;;;;;4779348;30;20071;-84
2022/09/06 05:18:26;;;;;;;2.75;1.90;;;17.70;99.90;;;;;;4785349;29;20032;-84
2022/09/06 05:20:53;;;;;;;2.67;1.73;;;17.70;99.90;;;;;;4787769;30;20126;-86
2022/09/06 05:23:19;;;;;;;3.10;1.98;;;17.70;99.90;;;;;;4774859;30;20062;-87
2022/09/06 05:25:45;;;;;;;1.75;1.60;;;17.70;99.90;;;;;;4784162;30;20036;-85
2022/09/06 05:28:11;;;;;;;2.65;1.52;;;17.50;99.90;;;;;;4775220;30;20063;-85
2022/09/06 05:30:37;;;;;;;3.72;2.00;;;17.70;99.90;;;;;;4787497;30;20048;-84
2022/09/06 05:33:03;;;;;;;4.25;2.17;;;17.70;99.90;;;;;;4784836;30;20418;-86
2022/09/06 05:35:28;;;;;;;2.53;2.05;;;17.70;99.90;;;;;;4776271;30;20104;-85
2022/09/06 05:37:54;;;;;;;2.63;2.28;;;17.60;99.90;;;;;;4791319;29;20032;-89
2022/09/06 05:40:20;;;;;;;3.42;2.58;;;17.60;99.90;;;;;;4791329;29;20074;-87
2022/09/06 05:42:45;;;;;;;2.25;1.92;;;17.60;99.90;;;;;;4789409;29;20052;-85
2022/09/06 05:45:11;;;;;;;2.55;2.33;;;17.60;99.90;;;;;;4782398;30;20089;-87
2022/09/06 05:47:37;;;;;;;2.45;2.05;;;17.60;99.90;;;;;;4763851;30;20032;-85
2022/09/06 05:50:05;;;;;;;2.25;1.85;;;17.60;99.90;;;;;;4790069;30;20044;-85
2022/09/06 05:52:31;;;;;;;2.30;1.85;;;17.60;99.90;;;;;;4790133;29;20027;-85
2022/09/06 05:54:57;;;;;;;2.58;2.00;;;17.50;99.90;;;;;;4781927;30;20048;-85
2022/09/06 05:57:23;;;;;;;3.38;2.65;;;17.60;99.90;;;;;;4783308;30;20048;-85
2022/09/06 05:59:48;;;;;;;2.80;2.35;;;17.60;99.90;;;;;;4760111;30;20085;-85
2022/09/06 06:02:14;;;;;;;3.47;2.55;;;17.80;99.90;;;;;;4772381;30;20113;-85
2022/09/06 06:04:40;;;;;;;2.55;1.95;;;17.60;99.90;;;;;;4767313;30;20390;-85
2022/09/06 06:07:06;;;;;;;2.72;2.05;;;17.60;99.90;;;;;;4775072;30;20129;-85
2022/09/06 06:09:31;;;;;;;2.80;2.25;;;17.60;99.90;;;;;;4772736;30;20114;-84
2022/09/06 06:11:57;;;;;;;3.08;2.78;;;17.70;99.90;;;;;;4773179;30;20050;-85
2022/09/06 06:14:23;;;;;;;4.00;2.70;;;17.80;99.90;;;;;;4769450;30;20115;-85
2022/09/06 06:16:48;;;;;;;2.95;2.53;;;17.80;99.90;;;;;;4773399;30;20043;-86
2022/09/06 06:19:14;;;;;;;2.47;2.00;;;17.90;99.90;;;;;;4762844;30;20060;-85
2022/09/06 06:21:40;;;;;;;3.40;2.20;;;18.00;99.90;;;;;;4769372;30;20047;-85
2022/09/06 06:24:06;;;;;;;2.53;2.13;;;18.20;99.90;;;;;;4761798;30;20058;-88
2022/09/06 06:26:34;;;;;;;2.88;2.20;;;18.20;99.90;;;;;;4755137;30;20193;-87
2022/09/06 06:29:01;;;;;;;3.13;2.33;;;18.20;99.90;;;;;;4770790;30;20055;-87
2022/09/06 06:31:31;;;;;;;3.67;2.53;;;18.30;99.90;;;;;;4756238;30;20060;-87
2022/09/06 06:33:58;;;;;;;3.72;2.72;;;18.30;99.90;;;;;;4775289;30;20054;-86
2022/09/06 06:36:25;;;;;;;3.75;2.55;;;18.30;99.90;;;;;;4777353;30;20082;-86
2022/09/06 06:38:54;;;;;;;3.70;2.38;;;18.30;99.90;;;;;;4775626;30;20426;-86
2022/09/06 06:41:25;;;;;;;3.97;2.78;;;18.40;99.90;;;;;;4768496;30;20059;-88
2022/09/06 06:43:53;;;;;;;2.90;2.25;;;18.40;99.90;;;;;;4773895;30;20059;-86
2022/09/06 06:46:19;;;;;;;2.63;2.00;;;18.40;99.90;;;;;;4769104;30;20498;-86
2022/09/06 06:48:45;;;;;;;2.85;2.40;;;18.40;99.90;;;;;;4768847;30;20081;-86
2022/09/06 06:51:16;;;;;;;3.90;2.90;;;18.40;99.90;;;;;;4770686;30;20138;-85
2022/09/06 06:53:48;;;;;;;2.78;2.50;;;18.50;99.90;;;;;;4764307;30;20083;-87
2022/09/06 06:56:20;;;;;;;5.90;2.85;;;18.50;99.90;;;;;;4764431;30;20048;-87
2022/09/06 06:58:47;;;;;;;4.93;2.42;;;18.40;99.90;;;;;;4765074;30;20156;-86
2022/09/06 07:01:16;;;;;;;4.38;3.15;;;18.40;99.90;;;;;;4766833;30;20139;-88
2022/09/06 07:03:43;;;;;;;4.85;3.25;;;18.40;99.90;;;;;;4799805;29;20066;-87
2022/09/06 07:06:09;;;;;;;5.68;3.60;;;18.40;99.90;;;;;;4801484;29;20043;-84
2022/09/06 07:08:38;;;;;;;4.38;3.30;;;18.40;99.90;;;;;;4793641;29;20051;-85
2022/09/06 07:11:12;;;;;;;5.25;4.20;;;18.50;99.90;;;;;;4798648;29;20512;-86
2022/09/06 07:16:23;;;;;;;4.32;3.63;;;18.50;99.90;;;;;;3169599;27;20195;-84
2022/09/06 07:18:52;;;;;;;3.13;2.75;;;18.50;99.90;;;;;;4781427;30;20063;-84
2022/09/06 07:21:25;;;;;;;3.90;3.47;;;18.60;99.90;;;;;;4784823;30;20051;-85
2022/09/06 07:23:52;;;;;;;3.08;2.55;;;18.10;99.90;;;;;;4781889;30;20059;-85
2022/09/06 07:26:23;;;;;;;2.85;2.33;;;18.80;99.90;;;;;;4795853;30;20548;-86
2022/09/06 07:28:54;;;;;;;3.58;2.80;;;18.80;99.90;;;;;;4775562;30;20052;-85
2022/09/06 07:31:20;;;;;;;3.38;2.70;;;18.90;99.90;;;;;;4779499;30;20386;-86
2022/09/06 07:33:45;;;;;;;3.35;2.90;;;19.00;99.90;;;;;;4773824;30;20055;-86
2022/09/06 07:36:11;;;;;;;4.82;3.10;;;19.00;99.90;;;;;;4774101;30;20070;-85
2022/09/06 07:38:39;;;;;;;3.63;3.00;;;19.00;99.90;;;;;;4776187;30;20062;-88
2022/09/06 07:41:07;;;;;;;3.30;2.88;;;19.00;99.90;;;;;;4791991;30;20051;-85
2022/09/06 07:43:33;;;;;;;4.00;3.00;;;19.00;99.90;;;;;;4790245;29;20082;-85
2022/09/06 07:46:14;;;;;;;3.10;2.80;;;18.90;99.90;;;;;;4790315;29;20459;-84
2022/09/06 07:48:42;;;;;;;3.92;3.03;;;18.90;99.90;;;;;;4774011;30;20502;-85
2022/09/06 07:51:13;;;;;;;4.60;3.45;;;18.90;99.90;;;;;;4789307;30;20504;-85
2022/09/06 07:53:40;;;;;;;4.55;3.60;;;18.80;99.90;;;;;;4790940;30;20119;-86
2022/09/06 07:56:08;;;;;;;4.55;3.50;;;18.90;99.90;;;;;;4775919;30;20063;-85
2022/09/06 07:58:35;;;;;;;4.20;3.00;;;19.00;99.90;;;;;;4792142;30;20058;-85
2022/09/06 08:01:33;;;;;;;4.45;3.63;;;19.00;99.90;;;;;;4778410;30;20066;-85
2022/09/06 08:04:04;;;;;;;4.88;3.13;;;19.10;99.90;;;;;;4792806;29;20052;-86
2022/09/06 08:06:33;;;;;;;3.97;3.33;;;19.20;99.90;;;;;;4776347;30;20122;-85
2022/09/06 08:09:01;;;;;;;5.85;3.83;;;19.30;99.90;;;;;;4778547;30;20409;-85
2022/09/06 08:11:29;;;;;;;3.83;2.88;;;19.50;99.90;;;;;;4796063;30;20397;-86
2022/09/06 08:13:58;;;;;;;6.00;3.88;;;19.70;99.90;;;;;;4801725;30;20082;-87
2022/09/06 08:16:29;;;;;;;5.45;3.40;;;19.90;99.90;;;;;;4778513;30;20536;-86
2022/09/06 08:31:19;;;;;;;5.63;2.90;;;21.00;99.90;;;;;;4789784;30;20054;-85
2022/09/06 08:33:46;;;;;;;2.53;2.30;;;21.30;99.90;;;;;;4788729;29;20126;-84
2022/09/06 08:36:12;;;;;;;3.72;2.97;;;21.50;99.90;;;;;;4788701;30;20047;-85
2022/09/06 08:38:38;;;;;;;3.92;3.10;;;21.70;99.90;;;;;;4788880;30;20138;-85
2022/09/06 08:41:12;;;;;;;4.45;3.60;;;21.80;99.90;;;;;;4788926;30;20047;-86
2022/09/06 08:43:45;;;;;;;4.40;3.67;;;22.00;99.90;;;;;;4794237;30;20086;-86
2022/09/06 08:46:23;;;;;;;6.35;4.25;;;22.10;99.90;;;;;;4781403;30;20069;-87
2022/09/06 08:48:49;;;;;;;6.07;3.58;;;22.10;99.90;;;;;;4788008;30;20111;-88
2022/09/06 08:51:43;;;;;;;4.10;3.70;;;22.30;99.90;;;;;;4795420;30;20075;-86
2022/09/06 09:02:10;;;;;;;;;;;23.00;99.90;;;;;;5177790;24;20070;-83
2022/09/06 09:04:58;;;;;;;4.85;3.10;;;23.10;99.90;;;;;;4798011;29;19925;-83
2022/09/06 09:07:45;;;;;;;4.55;3.58;;;23.30;99.90;;;;;;4795419;29;20517;-83
2022/09/06 09:10:27;;;;;;;4.97;4.07;;;23.40;99.50;;;;;;4811079;29;20051;-84
2022/09/06 09:12:53;;;;;;;4.78;3.90;;;23.20;99.90;;;;;;4811123;29;20058;-84
2022/09/06 09:15:19;;;;;;;6.20;3.90;;;23.50;99.90;;;;;;4809736;29;20050;-84
2022/09/06 09:17:49;;;;;;;6.30;3.38;;;23.50;99.80;;;;;;4806123;29;20111;-84
2022/09/06 09:20:15;;;;;;;6.07;3.65;;;23.70;99.90;;;;;;4810494;29;20051;-83
2022/09/06 09:22:42;;;;;;;4.35;3.58;;;23.90;99.80;;;;;;4822295;29;20102;-82
2022/09/06 09:25:26;;;;;;;5.15;3.22;;;24.10;99.40;;;;;;4806030;29;20070;-83
2022/09/06 09:27:57;;;;;;;7.32;3.55;;;24.30;99.10;;;;;;4821232;29;20058;-83
2022/09/06 09:30:43;;;;;;;3.90;3.35;;;24.30;98.80;;;;;;4805095;29;20047;-84
2022/09/06 09:33:31;;;;;;;5.80;3.38;;;24.40;98.80;;;;;;4820815;29;20046;-82
2022/09/06 09:36:11;;;;;;;6.40;3.67;;;24.40;98.10;;;;;;4820459;29;20061;-85
2022/09/06 09:38:51;;;;;;;4.03;2.80;;;24.50;98.10;;;;;;4813516;29;20055;-83
2022/09/06 09:41:33;;;;;;;5.28;3.40;;;24.50;98.30;;;;;;4820393;29;20504;-83
2022/09/06 09:44:09;;;;;;;5.80;4.40;;;24.40;97.50;;;;;;4807525;29;20091;-86
2022/09/06 09:46:37;;;;;;;5.32;4.20;;;24.50;97.90;;;;;;4807032;29;20055;-87
2022/09/06 09:49:12;;;;;;;3.97;3.05;;;24.40;97.50;;;;;;4798533;29;20086;-84
2022/09/06 09:51:44;;;;;;;6.53;3.85;;;24.40;97.90;;;;;;4795765;29;20126;-84
2022/09/06 09:54:13;;;;;;;4.32;3.05;;;24.50;97.70;;;;;;4788862;29;20463;-86
2022/09/06 09:56:39;;;;;;;5.43;3.50;;;24.60;97.60;;;;;;4804934;29;20054;-87
2022/09/06 09:59:16;;;;;;;5.47;3.70;;;24.60;97.20;;;;;;4782602;30;20055;-83
2022/09/06 10:01:41;;;;;;;4.85;3.45;;;24.60;97.20;;;;;;4798797;29;20070;-88
2022/09/06 10:12:39;;;;;;;4.00;3.07;;;25.00;96.20;;;;;;4799511;29;20081;-85
2022/09/06 10:15:06;;;;;;;4.70;3.08;;;25.20;96.60;;;;;;4786758;29;20308;-83
2022/09/06 10:17:34;;;;;;;5.45;2.88;;;25.20;96.50;;;;;;4801461;29;20044;-84
2022/09/06 10:20:08;;;;;;;4.80;3.35;;;25.30;95.90;;;;;;4782832;30;20137;-87
2022/09/06 10:22:43;;;;;;;5.22;3.33;;;25.40;96.00;;;;;;4798740;29;20055;-85
2022/09/06 10:25:27;;;;;;;6.30;3.63;;;25.40;95.40;;;;;;4790527;29;20159;-85
2022/09/06 10:27:52;;;;;;;3.78;3.30;;;25.50;96.00;;;;;;4808380;29;20121;-85
2022/09/06 10:30:18;;;;;;;4.60;3.10;;;25.30;95.10;;;;;;4807839;29;20043;-84
2022/09/06 10:37:06;;;;;;;3.88;3.15;;;25.20;95.70;;;;;;4809387;29;20110;-86
2022/09/06 10:39:57;;;;;;;4.30;2.33;;;25.20;95.30;;;;;;4793686;29;20066;-85
2022/09/06 10:46:11;;;;;;;5.65;2.92;;;25.20;94.30;;;;;;4741947;30;20060;-93
2022/09/06 10:49:02;;;;;;;3.50;2.30;;;25.30;94.70;;;;;;4764640;30;20048;-88
2022/09/06 11:09:19;;;;;;;5.43;2.50;;;26.10;93.40;;;;;;4772226;30;20054;-86
2022/09/06 11:12:08;;;;;;;4.82;2.40;;;26.30;93.80;;;;;;4734548;30;20048;-85
2022/09/06 11:14:35;;;;;;;3.80;2.92;;;26.60;93.60;;;;;;4733303;29;20061;-84
2022/09/06 11:17:11;;;;;;;2.92;2.08;;;26.70;92.80;;;;;;4731884;30;20139;-84
2022/09/06 11:19:45;;;;;;;3.42;2.22;;;26.80;93.10;;;;;;4732601;30;20618;-83
2022/09/06 11:22:22;;;;;;;3.30;2.10;;;27.00;93.20;;;;;;4732462;30;20072;-83
2022/09/06 11:25:17;;;;;;;2.67;1.67;;;27.10;92.90;;;;;;4734987;30;20052;-83
2022/09/06 11:27:49;;;;;;;2.17;1.60;;;27.30;92.30;;;;;;4719040;30;20071;-83
2022/09/06 11:30:16;;;;;;;2.58;1.77;;;27.50;92.40;;;;;;4740180;30;20124;-84
2022/09/06 11:32:47;;;;;;;2.42;1.73;;;27.70;91.70;;;;;;4740714;30;20099;-84
2022/09/06 11:35:34;;;;;;;3.53;2.45;;;27.80;91.90;;;;;;4733671;30;20056;-84
2022/09/06 11:38:17;;;;;;;2.95;2.13;;;27.80;91.20;;;;;;4727198;30;20044;-84
2022/09/06 11:40:46;;;;;;;2.90;2.25;;;27.90;91.10;;;;;;4739357;30;20529;-85
2022/09/06 11:43:45;;;;;;;1.80;1.55;;;28.00;90.90;;;;;;4739349;30;20056;-84
2022/09/06 11:46:33;;;;;;;1.63;1.42;;;28.10;90.30;;;;;;4742443;30;20051;-83
2022/09/06 11:53:07;;;;;;;3.88;1.88;;;28.20;90.60;;;;;;4773131;30;20039;-84
2022/09/06 11:55:35;;;;;;;3.83;1.83;;;28.30;88.60;;;;;;4783925;29;20101;-85
2022/09/06 11:58:04;;;;;;;3.65;1.90;;;28.40;90.00;;;;;;4777807;30;20126;-83
2022/09/06 12:00:31;;;;;;;2.30;1.90;;;28.50;89.20;;;;;;4779498;30;20082;-81
2022/09/06 12:02:57;;;;;;;2.67;1.48;;;28.30;89.00;;;;;;4773987;30;20060;-84
2022/09/06 12:05:28;;;;;;;1.55;1.45;;;28.30;89.60;;;;;;4780285;30;20054;-83
2022/09/06 12:08:25;;;;;;;2.33;1.55;;;28.40;90.00;;;;;;4781342;29;20486;-83
2022/09/06 12:11:04;;;;;;;1.70;1.48;;;28.60;89.40;;;;;;4777536;30;20118;-83
2022/09/06 12:13:45;;;;;;;2.03;1.60;;;28.80;88.70;;;;;;4777164;30;20487;-83
2022/09/06 12:16:12;;;;;;;2.47;1.70;;;29.00;88.70;;;;;;4770005;30;20052;-83
2022/09/06 12:18:47;;;;;;;1.88;1.40;;;29.20;89.00;;;;;;4773283;30;20041;-84
2022/09/06 12:21:31;;;;;;;;;;;29.20;86.60;;;;;;4773169;29;20518;-81
2022/09/06 12:23:57;;;;;;;2.13;1.65;;;29.30;87.30;;;;;;4774020;30;20398;-83
2022/09/06 12:27:01;;;;;;;3.28;1.80;;;29.20;87.10;;;;;;4777805;30;20071;-82
2022/09/06 12:29:27;;;;;;;2.47;1.92;;;29.30;86.50;;;;;;4771400;29;20059;-82
2022/09/06 12:31:57;;;;;;;1.55;1.45;;;29.30;84.60;;;;;;4779971;30;20043;-82
2022/09/06 12:34:34;;;;;;;2.45;1.58;;;29.30;85.50;;;;;;4769883;30;20052;-83
2022/09/06 12:37:06;;;;;;;4.65;1.63;;;29.30;84.90;;;;;;4774731;30;20123;-83
2022/09/06 12:39:33;;;;;;;2.60;1.67;;;29.30;86.40;;;;;;4776927;30;20506;-83
2022/09/06 12:42:06;;;;;;;2.42;1.50;;;29.50;85.10;;;;;;4778756;30;20405;-82
2022/09/06 12:44:47;;;;;;;1.88;1.48;;;29.60;84.50;;;;;;4771000;30;20459;-83
2022/09/06 12:47:27;;;;;;;1.60;1.30;;;29.60;84.90;;;;;;4774246;30;20055;-83
2022/09/06 12:50:30;;;;;;;2.10;1.50;;;29.60;83.50;;;;;;4769880;30;20561;-84
2022/09/06 12:53:01;;;;;;;2.75;1.80;;;29.60;84.60;;;;;;4756777;30;20127;-84
2022/09/06 12:55:36;;;;;;;3.30;1.80;;;29.50;84.80;;;;;;4756442;30;20596;-83
2022/09/06 12:58:10;;;;;;;3.15;1.50;;;29.50;83.70;;;;;;4756958;30;20104;-85
2022/09/06 13:00:43;;;;;;;3.10;1.63;;;29.50;84.60;;;;;;4734740;30;20503;-86
2022/09/06 13:03:32;;;;;;;2.13;1.40;;;29.60;84.70;;;;;;4755465;30;20060;-84
2022/09/06 13:06:04;;;;;;;1.75;1.48;;;29.70;83.60;;;;;;4752506;30;20062;-84
2022/09/06 13:08:54;;;;;;;2.78;1.70;;;29.80;82.50;;;;;;4753284;30;20063;-84
2022/09/06 13:11:43;;;;;;;2.45;1.80;;;29.80;83.00;;;;;;4748557;30;20060;-83
2022/09/06 13:14:16;;;;;;;3.85;1.63;;;29.90;83.80;;;;;;4756152;30;20510;-85
2022/09/06 13:16:45;;;;;;;2.35;1.50;;;30.00;83.40;;;;;;4756198;30;20472;-84
2022/09/06 13:19:13;;;;;;;2.22;1.52;;;30.10;82.30;;;;;;4741925;30;20523;-84
2022/09/06 13:21:41;;;;;;;3.95;1.92;;;30.10;82.50;;;;;;4756177;30;20044;-84
2022/09/06 13:24:19;;;;;;;2.85;1.77;;;30.00;81.90;;;;;;4759379;30;20052;-84
2022/09/06 13:26:45;;;;;;;1.90;1.52;;;30.10;82.90;;;;;;4760816;30;20051;-84
2022/09/06 13:29:16;;;;;;;1.58;1.30;;;30.10;83.00;;;;;;4775191;30;20055;-85
2022/09/06 13:31:53;;;;;;;2.83;1.80;;;30.20;83.00;;;;;;4774616;29;20053;-85
2022/09/06 13:34:26;;;;;;;3.22;1.60;;;30.30;81.50;;;;;;4771722;30;20054;-84
2022/09/06 13:36:58;;;;;;;5.25;1.65;;;30.30;81.50;;;;;;4770344;30;20059;-84
2022/09/06 13:39:37;;;;;;;3.10;2.10;;;30.30;82.20;;;;;;4775637;29;20059;-84
2022/09/06 13:42:09;;;;;;;2.83;1.52;;;30.30;81.20;;;;;;4778227;29;20063;-83
2022/09/06 13:44:37;;;;;;;2.85;1.83;;;30.50;81.80;;;;;;4777534;30;20122;-84
2022/09/06 13:47:03;;;;;;;2.03;1.60;;;30.50;80.30;;;;;;4775148;30;20059;-83
2022/09/06 13:49:30;;;;;;;4.20;2.30;;;30.50;81.80;;;;;;4778927;30;20055;-83
2022/09/06 13:52:01;;;;;;;2.97;1.92;;;30.50;81.20;;;;;;4786076;30;20044;-85
2022/09/06 13:54:28;;;;;;;2.70;1.92;;;30.70;81.20;;;;;;4778356;30;20132;-85
2022/09/06 13:56:57;;;;;;;3.33;1.60;;;30.80;81.50;;;;;;4778278;30;20197;-89
2022/09/06 13:59:23;;;;;;;3.05;1.52;;;31.00;81.00;;;;;;4779644;30;20074;-88
2022/09/06 14:02:00;;;;;;;1.92;1.73;;;31.00;79.40;;;;;;4771084;30;20055;-87
2022/09/06 14:04:26;;;;;;;6.80;1.52;;;30.90;79.50;;;;;;4779266;30;20095;-86
2022/09/06 14:06:55;;;;;;;3.92;2.55;;;30.90;79.60;;;;;;4779815;30;20048;-87
2022/09/06 14:09:21;;;;;;;2.78;1.70;;;30.80;78.60;;;;;;4778336;30;20414;-86
2022/09/06 14:11:47;;;;;;;1.80;1.45;;;30.60;79.30;;;;;;4775742;30;20055;-86